Kayford, West Virginia
Current Conditions -  °F | °C
As of 11:54 PM on Sunday 21 Dec 2014 (Local Time) from KCRW Reporting Station
Scattered Clouds Scattered Clouds  
Wind Chill: 29°   Ceiling: Unl
Heat Index: 29°   Visibility: 8mi
Dew Point: 25°   Wind: 0mph
Humidity: 85%   Direction: NA
Pressure: 30.13"   Gusts: NA
Location:  38.0912°N, 81.4436°W
Report Text: KCRW 220454Z 00000KT 8SM SCT300 M02/M04 A3013 RMK AO2 SLP210 T10171039 400781028
Loading
Personal Weather Stations






























Interactive Weather Map New forecast layout! Learn more

10-Day Weather Forecast

Advertisements
Track Severe Weather on mobile